Time;durP1;ratioP1;P1;durP2;ratioP2;P2;SDS_P1;SDS_P2;PMS_P1;PMS_P2;Temp;Humidity;BMP_temperature;BMP_pressure;BME280_temperature;BME280_humidity;BME280_pressure;Samples;Min_cycle;Max_cycle;Signal;HPM_P1;HPM_P2
2021/11/13 00:02:32;;;;;;;84.88;38.55;;;;;;;9.23;56.19;101194.53;6116607;23;96393;-92
2021/11/13 00:05:00;;;;;;;84.40;38.75;;;;;;;9.28;55.73;101179.47;6118632;23;98115;-91
2021/11/13 00:10:13;;;;;;;82.80;38.08;;;;;;;9.40;55.40;101180.03;6110288;23;96836;-91
2021/11/13 00:12:41;;;;;;;81.50;38.83;;;;;;;9.51;54.81;101179.81;6117128;23;96576;-92
2021/11/13 00:15:21;;;;;;;79.35;38.45;;;;;;;9.06;56.77;101182.59;6117340;23;99820;-90
2021/11/13 00:17:55;;;;;;;77.43;38.03;;;;;;;9.31;55.05;101172.38;6113717;23;96408;-90
2021/11/13 00:20:27;;;;;;;86.00;39.53;;;;;;;9.11;55.70;101180.72;6117574;23;96570;-90
2021/11/13 00:22:56;;;;;;;86.35;39.47;;;;;;;9.07;56.28;101178.19;6091201;23;96634;-91
2021/11/13 00:28:05;;;;;;;81.60;38.35;;;;;;;9.31;55.75;101169.72;6115801;23;99691;-92
2021/11/13 00:30:44;;;;;;;82.80;38.63;;;;;;;9.21;56.10;101165.56;6042015;23;99865;-89
2021/11/13 00:33:33;;;;;;;82.10;38.63;;;;;;;9.37;55.28;101150.25;6056469;23;96751;-89
2021/11/13 00:36:00;;;;;;;76.03;36.58;;;;;;;9.47;54.63;101159.66;6057328;23;98416;-90
2021/11/13 00:38:29;;;;;;;83.80;38.78;;;;;;;9.47;54.78;101163.16;6052431;23;100361;-91
2021/11/13 00:40:58;;;;;;;81.70;38.35;;;;;;;9.29;55.34;101157.47;6051983;23;97041;-91
2021/11/13 00:43:30;;;;;;;84.43;38.88;;;;;;;9.03;55.56;101158.94;6056435;23;96725;-89
2021/11/13 00:46:02;;;;;;;81.65;37.90;;;;;;;9.08;55.73;101154.44;6053163;23;99205;-89
2021/11/13 00:48:30;;;;;;;81.05;36.10;;;;;;;9.25;55.15;101146.13;6047550;23;98953;-90
2021/11/13 00:50:58;;;;;;;78.20;37.10;;;;;;;9.27;55.39;101146.06;6048598;23;96513;-89
2021/11/13 00:53:24;;;;;;;77.82;37.00;;;;;;;9.15;55.26;101150.75;6047040;23;96720;-89
2021/11/13 00:55:53;;;;;;;81.55;38.13;;;;;;;8.82;56.90;101150.63;6051188;23;97741;-88
2021/11/13 00:58:20;;;;;;;78.57;37.50;;;;;;;9.05;55.99;101140.47;6051709;23;99754;-89
2021/11/13 01:00:46;;;;;;;84.40;38.05;;;;;;;9.17;55.88;101148.09;6047775;23;96544;-89
2021/11/13 01:03:13;;;;;;;77.00;37.13;;;;;;;9.24;55.64;101156.72;6025383;23;96540;-88
2021/11/13 01:05:41;;;;;;;88.55;38.35;;;;;;;9.31;55.40;101147.75;6058697;23;98171;-85
2021/11/13 01:08:08;;;;;;;82.03;37.22;;;;;;;9.46;55.33;101152.66;6063648;23;97492;-87
2021/11/13 01:10:40;;;;;;;80.30;37.47;;;;;;;9.65;54.68;101146.00;6064948;23;95831;-88
2021/11/13 01:13:09;;;;;;;81.03;37.10;;;;;;;9.66;53.71;101155.66;6064641;23;95970;-88
2021/11/13 01:15:36;;;;;;;77.82;35.42;;;;;;;9.74;54.24;101164.25;6064332;23;97774;-90
2021/11/13 01:18:05;;;;;;;77.05;35.85;;;;;;;9.42;54.65;101158.91;6065086;23;96515;-89
2021/11/13 01:20:32;;;;;;;82.50;36.90;;;;;;;9.49;54.26;101157.84;6064979;23;95746;-85
2021/11/13 01:23:02;;;;;;;79.50;37.15;;;;;;;9.43;53.61;101150.97;6065166;23;96021;-89
2021/11/13 01:25:30;;;;;;;84.22;37.95;;;;;;;9.46;55.06;101153.50;6064683;23;96977;-91
2021/11/13 01:27:59;;;;;;;79.00;37.13;;;;;;;9.55;54.36;101158.56;6062305;23;98802;-90
2021/11/13 01:30:26;;;;;;;78.28;36.97;;;;;;;9.57;54.57;101146.22;6064230;23;96527;-89
2021/11/13 01:32:53;;;;;;;75.10;35.78;;;;;;;9.51;54.54;101142.88;6082617;23;96608;-89
2021/11/13 01:35:21;;;;;;;81.45;37.03;;;;;;;9.29;55.21;101131.09;6087551;23;99820;-89
2021/11/13 01:37:48;;;;;;;79.43;37.25;;;;;;;8.94;55.61;101131.91;6066245;23;97838;-89
2021/11/13 01:40:19;;;;;;;74.53;36.63;;;;;;;9.14;55.22;101125.28;6093820;23;95827;-85
2021/11/13 01:42:48;;;;;;;83.00;38.92;;;;;;;9.17;55.57;101122.59;6094460;23;95961;-86
2021/11/13 01:45:16;;;;;;;73.40;34.67;;;;;;;9.41;55.46;101118.47;6093340;23;96879;-88
2021/11/13 01:47:44;;;;;;;85.85;38.67;;;;;;;9.34;55.15;101108.09;6092417;23;98310;-87
2021/11/13 01:50:14;;;;;;;80.90;37.65;;;;;;;9.22;55.07;101126.88;6094394;23;96189;-88
2021/11/13 01:52:41;;;;;;;79.38;36.13;;;;;;;9.34;55.40;101113.38;6078224;23;96666;-91
2021/11/13 01:55:10;;;;;;;88.65;37.45;;;;;;;9.29;55.47;101110.00;6081426;23;101781;-90
2021/11/13 01:57:47;;;;;;;77.07;35.90;;;;;;;9.72;54.58;101115.03;6077431;23;96826;-90
2021/11/13 02:00:20;;;;;;;78.55;35.97;;;;;;;9.40;55.11;101110.59;6082227;23;96611;-87
2021/11/13 02:02:48;;;;;;;80.63;38.60;;;;;;;9.65;54.66;101114.34;6076893;23;96649;-90
2021/11/13 02:07:57;;;;;;;79.78;36.30;;;;;;;9.87;54.32;101123.44;6086591;23;99415;-87
2021/11/13 02:10:27;;;;;;;79.22;36.42;;;;;;;9.78;53.85;101130.75;6094653;23;95860;-88
2021/11/13 02:12:56;;;;;;;77.15;36.53;;;;;;;9.71;53.78;101127.41;6094650;23;96361;-90
2021/11/13 02:15:25;;;;;;;77.47;35.95;;;;;;;9.59;54.67;101119.78;6094114;23;97135;-90
2021/11/13 02:17:53;;;;;;;77.63;36.47;;;;;;;9.88;53.95;101130.44;6094444;23;98209;-87
2021/11/13 02:20:28;;;;;;;78.75;35.05;;;;;;;9.67;53.85;101119.59;6093716;23;96077;-89
2021/11/13 02:23:00;;;;;;;76.43;36.80;;;;;;;9.70;54.23;101116.88;6091918;23;96366;-88
2021/11/13 02:25:29;;;;;;;83.05;36.72;;;;;;;9.47;54.53;101109.53;6068399;23;96983;-90
2021/11/13 02:27:56;;;;;;;78.72;37.47;;;;;;;9.75;53.88;101120.25;6092814;23;100301;-93
2021/11/13 02:30:24;;;;;;;80.05;35.92;;;;;;;9.58;54.25;101105.72;6057337;23;96298;-92
2021/11/13 02:32:59;;;;;;;76.45;36.00;;;;;;;9.65;54.08;101101.16;6046260;23;96748;-93
2021/11/13 02:35:32;;;;;;;73.32;34.75;;;;;;;9.78;53.95;101097.28;6044854;23;99280;-92
2021/11/13 02:38:10;;;;;;;78.60;34.70;;;;;;;9.30;55.14;101090.66;6045184;23;98221;-92
2021/11/13 02:40:36;;;;;;;75.22;34.03;;;;;;;9.45;54.97;101106.09;6044080;23;96679;-91
2021/11/13 02:43:05;;;;;;;76.43;35.65;;;;;;;9.60;55.03;101110.97;6043942;23;96701;-91
2021/11/13 02:45:32;;;;;;;75.18;35.45;;;;;;;9.32;55.16;101104.66;6042526;23;97972;-90
2021/11/13 02:48:03;;;;;;;77.82;34.60;;;;;;;9.31;55.19;101092.38;6043694;23;96918;-91
2021/11/13 02:50:32;;;;;;;81.22;36.90;;;;;;;9.63;55.00;101095.06;6055496;23;96563;-91
2021/11/13 02:53:01;;;;;;;75.35;35.50;;;;;;;9.55;54.74;101092.63;6057660;23;96770;-91
2021/11/13 02:55:30;;;;;;;77.18;34.97;;;;;;;9.43;54.62;101086.78;6051399;23;97183;-92
2021/11/13 02:57:58;;;;;;;75.40;35.97;;;;;;;9.44;54.99;101094.69;6059834;23;97814;-90
2021/11/13 03:00:30;;;;;;;71.28;34.60;;;;;;;9.47;54.68;101085.78;6060667;23;96434;-89
2021/11/13 03:02:58;;;;;;;70.57;33.78;;;;;;;9.03;56.31;101100.09;6061693;23;96603;-91
2021/11/13 03:05:31;;;;;;;75.18;33.83;;;;;;;9.33;55.45;101111.66;6062499;23;98474;-90
2021/11/13 03:08:01;;;;;;;74.75;34.40;;;;;;;8.79;57.25;101105.00;6064181;23;98112;-91
2021/11/13 03:10:36;;;;;;;73.10;32.85;;;;;;;9.07;56.71;101088.53;6062818;23;96444;-91
2021/11/13 03:13:07;;;;;;;72.72;35.00;;;;;;;9.11;55.88;101062.09;6063800;23;96543;-90
2021/11/13 03:15:38;;;;;;;77.07;34.63;;;;;;;9.29;55.90;101073.09;6064684;23;100160;-88
2021/11/13 03:18:09;;;;;;;78.53;33.85;;;;;;;9.01;56.30;101063.19;6063737;23;97425;-88
2021/11/13 03:20:39;;;;;;;71.20;34.65;;;;;;;8.93;56.67;101062.50;6064768;23;96180;-84
2021/11/13 03:23:09;;;;;;;76.82;36.00;;;;;;;8.94;57.16;101063.38;6053797;23;96540;-90
2021/11/13 03:25:43;;;;;;;81.80;36.97;;;;;;;9.02;56.31;101043.84;6053418;23;98009;-91
2021/11/13 03:28:13;;;;;;;90.22;41.70;;;;;;;8.93;57.13;101054.59;6052860;23;96692;-91
2021/11/13 03:30:41;;;;;;;93.35;42.25;;;;;;;8.99;56.45;101059.72;6050069;23;96687;-89
2021/11/13 03:33:08;;;;;;;112.88;47.92;;;;;;;8.99;56.34;101051.81;6073080;23;97089;-90
2021/11/13 03:35:35;;;;;;;99.55;47.85;;;;;;;9.27;56.44;101045.88;6072735;23;99208;-90
2021/11/13 03:38:05;;;;;;;107.70;50.83;;;;;;;9.46;55.45;101049.75;6073260;23;100107;-89
2021/11/13 03:40:34;;;;;;;117.78;54.03;;;;;;;9.42;55.24;101059.53;6074575;23;96595;-90
2021/11/13 03:43:01;;;;;;;100.40;48.25;;;;;;;9.42;55.85;101064.81;6074463;23;96705;-89
2021/11/13 03:45:28;;;;;;;92.55;44.90;;;;;;;9.51;54.92;101069.00;6071436;23;98199;-89
2021/11/13 03:47:59;;;;;;;99.38;43.47;;;;;;;9.11;55.78;101053.31;6072903;23;99192;-90
2021/11/13 03:50:26;;;;;;;86.90;41.15;;;;;;;9.46;55.21;101044.50;6044255;23;96620;-89
2021/11/13 03:52:54;;;;;;;85.20;40.60;;;;;;;9.26;55.32;101037.09;6071424;23;96601;-90
2021/11/13 03:55:22;;;;;;;79.38;36.75;;;;;;;9.29;55.65;101049.34;6072351;23;99868;-89
2021/11/13 03:57:50;;;;;;;77.07;35.47;;;;;;;9.48;55.65;101054.09;6045060;23;98111;-89
2021/11/13 04:00:18;;;;;;;81.80;35.80;;;;;;;9.53;55.01;101035.50;6071956;23;96706;-89
2021/11/13 04:02:47;;;;;;;72.32;33.70;;;;;;;9.48;54.87;101038.28;6074035;23;96705;-89
2021/11/13 04:05:16;;;;;;;72.60;33.53;;;;;;;9.38;55.14;101039.44;6071079;23;100432;-89
2021/11/13 04:07:43;;;;;;;75.72;33.85;;;;;;;9.23;56.16;101028.41;6077695;23;99035;-88
2021/11/13 04:10:14;;;;;;;73.90;34.05;;;;;;;9.22;56.20;101026.69;6074837;23;96633;-90
2021/11/13 04:12:44;;;;;;;61.88;30.15;;;;;;;9.25;55.63;101021.34;6078555;23;96590;-90
2021/11/13 04:15:14;;;;;;;67.80;30.85;;;;;;;9.33;55.49;101028.13;6077370;23;98130;-90
2021/11/13 04:17:46;;;;;;;72.90;32.95;;;;;;;9.16;56.51;101033.84;6078828;23;99743;-90
2021/11/13 04:20:14;;;;;;;63.70;31.58;;;;;;;9.27;55.72;101027.41;6079828;23;97271;-91
2021/11/13 04:22:41;;;;;;;72.40;31.70;;;;;;;8.93;56.90;101006.31;6079912;23;96546;-90
2021/11/13 04:25:10;;;;;;;70.25;32.53;;;;;;;9.09;56.81;101013.81;6083674;23;98160;-90
2021/11/13 04:27:38;;;;;;;60.67;30.67;;;;;;;9.25;55.74;101013.44;6085943;23;98288;-90
2021/11/13 04:30:09;;;;;;;62.50;30.98;;;;;;;9.44;55.64;101028.72;6081242;23;96610;-89
2021/11/13 04:32:38;;;;;;;65.80;30.30;;;;;;;9.41;55.88;101015.59;6071035;23;96832;-89
2021/11/13 04:35:21;;;;;;;64.38;31.23;;;;;;;9.45;55.27;101025.16;6045721;23;98666;-89
2021/11/13 04:37:51;;;;;;;62.65;29.70;;;;;;;9.16;55.94;101027.69;6072017;23;98930;-89
2021/11/13 04:40:20;;;;;;;63.35;30.67;;;;;;;9.23;56.10;101042.47;6072141;23;96678;-89
2021/11/13 04:42:46;;;;;;;65.03;30.27;;;;;;;9.12;56.50;101042.72;6082214;23;96666;-90
2021/11/13 04:45:14;;;;;;;63.75;29.83;;;;;;;9.18;55.82;101041.72;6076217;23;99628;-91
2021/11/13 04:47:42;;;;;;;73.45;32.88;;;;;;;9.48;55.57;101054.09;6050081;23;97781;-89
2021/11/13 04:50:12;;;;;;;64.35;30.75;;;;;;;9.67;55.00;101059.75;6072620;23;97109;-89
2021/11/13 04:52:39;;;;;;;73.22;31.25;;;;;;;9.85;54.27;101059.25;6082823;23;96478;-86
2021/11/13 04:55:07;;;;;;;68.28;29.73;;;;;;;9.73;54.31;101049.03;6091221;23;96856;-88
2021/11/13 04:57:35;;;;;;;68.88;30.67;;;;;;;9.78;54.55;101062.97;6089236;23;99434;-89
2021/11/13 05:00:06;;;;;;;68.57;31.02;;;;;;;9.75;54.84;101064.84;6088113;23;96468;-89
2021/11/13 05:02:33;;;;;;;61.63;29.88;;;;;;;9.71;54.67;101073.75;6079071;23;96713;-89
2021/11/13 05:05:02;;;;;;;60.92;29.08;;;;;;;9.68;54.99;101072.06;6072050;23;99032;-87
2021/11/13 05:07:29;;;;;;;62.33;30.75;;;;;;;9.77;54.41;101087.66;6056338;23;97734;-89
2021/11/13 05:10:00;;;;;;;63.33;28.90;;;;;;;9.97;54.33;101082.69;6086106;23;96460;-89
2021/11/13 05:12:28;;;;;;;63.65;29.90;;;;;;;10.06;53.86;101099.16;6089868;23;96581;-89
2021/11/13 05:14:56;;;;;;;55.80;27.17;;;;;;;10.06;53.94;101099.16;6065700;23;98640;-91
2021/11/13 05:17:23;;;;;;;62.58;28.88;;;;;;;10.00;53.26;101090.53;6094086;23;100089;-88
2021/11/13 05:19:54;;;;;;;61.70;29.33;;;;;;;10.03;53.22;101089.59;6095157;23;96430;-87
2021/11/13 05:22:43;;;;;;;56.58;27.33;;;;;;;9.93;53.73;101082.81;6094980;23;96595;-89
2021/11/13 05:25:14;;;;;;;66.55;30.45;;;;;;;9.93;54.04;101078.41;6092946;23;96842;-91
2021/11/13 05:27:42;;;;;;;63.67;30.20;;;;;;;9.82;53.76;101083.13;6092663;23;96946;-90
2021/11/13 05:30:12;;;;;;;65.45;31.58;;;;;;;9.86;54.42;101081.25;6086377;23;96636;-89
2021/11/13 05:32:39;;;;;;;55.88;27.80;;;;;;;9.97;52.96;101089.75;6021915;23;97209;-89
2021/11/13 05:35:07;;;;;;;60.78;30.50;;;;;;;9.85;54.36;101093.56;6061518;23;99331;-87
2021/11/13 05:37:34;;;;;;;64.75;29.20;;;;;;;9.56;54.73;101086.44;6063939;23;96824;-88
2021/11/13 05:40:04;;;;;;;65.95;29.83;;;;;;;9.64;54.73;101088.03;6065655;23;95812;-89
2021/11/13 05:42:32;;;;;;;59.13;28.95;;;;;;;9.73;54.37;101083.34;6064339;23;96677;-88
2021/11/13 05:45:00;;;;;;;62.22;30.45;;;;;;;9.68;54.84;101087.88;6058248;23;99505;-89
2021/11/13 05:47:28;;;;;;;64.22;30.55;;;;;;;9.77;54.10;101084.16;6051185;23;99267;-89
2021/11/13 05:49:55;;;;;;;57.92;28.40;;;;;;;9.69;54.40;101080.84;6052269;23;96554;-90
2021/11/13 05:52:22;;;;;;;56.83;27.88;;;;;;;9.75;54.27;101080.66;6057336;23;96388;-90
2021/11/13 05:54:50;;;;;;;59.25;28.77;;;;;;;9.81;54.50;101080.50;6051757;23;96730;-90
2021/11/13 05:57:29;;;;;;;60.13;29.98;;;;;;;10.00;53.75;101069.41;6052696;23;99767;-91
2021/11/13 05:59:56;;;;;;;60.25;28.27;;;;;;;10.03;53.54;101075.50;6050171;23;96520;-91
2021/11/13 06:05:08;;;;;;;57.08;27.70;;;;;;;9.90;53.64;101078.50;6058690;23;99307;-89
2021/11/13 06:07:35;;;;;;;58.83;28.88;;;;;;;10.09;53.59;101075.34;6063811;23;97814;-89
2021/11/13 06:10:04;;;;;;;58.90;29.27;;;;;;;9.84;53.72;101083.94;6060308;23;96611;-90
2021/11/13 06:12:33;;;;;;;59.67;28.15;;;;;;;9.83;54.38;101082.22;6064849;23;96451;-89
2021/11/13 06:15:02;;;;;;;57.95;28.50;;;;;;;10.02;53.61;101086.97;6058313;23;100631;-90
2021/11/13 06:17:29;;;;;;;58.35;28.33;;;;;;;9.86;53.90;101087.38;6054092;23;98819;-89
2021/11/13 06:19:55;;;;;;;54.60;27.38;;;;;;;10.06;53.86;101083.31;6052964;23;96523;-90
2021/11/13 06:22:28;;;;;;;59.75;29.40;;;;;;;10.04;53.34;101082.53;6056920;23;96973;-90
2021/11/13 06:24:57;;;;;;;60.25;29.15;;;;;;;9.84;54.35;101094.50;6063891;23;98100;-88
2021/11/13 06:27:27;;;;;;;57.90;27.73;;;;;;;9.77;54.33;101092.94;6064440;23;98971;-87
2021/11/13 06:29:55;;;;;;;56.97;28.85;;;;;;;9.58;54.40;101091.69;6065440;23;95901;-83
2021/11/13 06:32:23;;;;;;;56.05;27.67;;;;;;;9.83;54.79;101095.41;6089060;23;96436;-87
2021/11/13 06:34:50;;;;;;;57.58;28.33;;;;;;;9.88;54.42;101093.50;6093821;23;98981;-81
2021/11/13 06:37:17;;;;;;;64.07;28.20;;;;;;;9.83;54.02;101097.19;6093927;23;97698;-86
2021/11/13 06:39:45;;;;;;;57.95;27.85;;;;;;;10.00;54.10;101105.50;6094143;23;95815;-82
2021/11/13 06:42:12;;;;;;;56.13;27.92;;;;;;;9.98;54.27;101102.03;6094291;23;96270;-86
2021/11/13 06:44:40;;;;;;;56.65;27.60;;;;;;;9.84;54.04;101106.84;6094082;23;96943;-87
2021/11/13 06:47:08;;;;;;;53.88;26.75;;;;;;;9.60;54.90;101109.19;6093816;23;98043;-87
2021/11/13 06:49:35;;;;;;;54.70;27.30;;;;;;;9.54;56.03;101111.13;6095101;23;96833;-87
2021/11/13 06:52:01;;;;;;;59.13;28.67;;;;;;;9.67;55.30;101107.25;6069968;23;95853;-85
2021/11/13 06:54:28;;;;;;;58.67;27.70;;;;;;;9.48;55.66;101109.50;6069021;23;96538;-87
2021/11/13 06:56:58;;;;;;;59.92;27.08;;;;;;;9.75;54.99;101118.50;6093069;23;97642;-84
2021/11/13 06:59:29;;;;;;;63.25;28.02;;;;;;;9.64;54.75;101120.53;6094396;23;95812;-87
2021/11/13 07:01:59;;;;;;;61.10;27.50;;;;;;;9.79;54.82;101120.13;6095180;23;97467;-88
2021/11/13 07:04:32;;;;;;;55.90;26.75;;;;;;;9.80;54.50;101124.50;6094687;23;99603;-86
2021/11/13 07:07:00;;;;;;;56.75;27.30;;;;;;;9.81;54.54;101125.38;6093592;23;97058;-87
2021/11/13 07:09:33;;;;;;;57.90;28.67;;;;;;;9.78;54.84;101125.47;6095234;23;95755;-87
2021/11/13 07:12:08;;;;;;;56.53;27.58;;;;;;;9.86;54.83;101134.91;6059064;23;96667;-90
2021/11/13 07:14:36;;;;;;;55.50;26.10;;;;;;;9.78;54.21;101131.59;6080610;23;101061;-91
2021/11/13 07:17:05;;;;;;;58.35;28.35;;;;;;;9.73;55.09;101130.84;6081187;23;98098;-91
2021/11/13 07:19:33;;;;;;;52.42;26.10;;;;;;;9.90;54.50;101135.69;6082889;23;96793;-93
2021/11/13 07:22:00;;;;;;;55.20;26.75;;;;;;;9.82;54.77;101133.25;6077555;23;96825;-92
2021/11/13 07:24:35;;;;;;;54.03;26.23;;;;;;;10.00;54.12;101129.25;6052591;23;98866;-93
2021/11/13 07:27:05;;;;;;;51.17;26.52;;;;;;;10.17;53.55;101126.19;6082096;23;98136;-92
2021/11/13 07:29:45;;;;;;;55.00;26.83;;;;;;;10.33;53.33;101119.56;6091135;23;96608;-92
2021/11/13 07:32:15;;;;;;;58.35;26.60;;;;;;;10.19;53.34;101127.00;6083050;23;96637;-92
2021/11/13 07:34:44;;;;;;;51.55;25.55;;;;;;;10.03;53.50;101128.31;6080184;23;99460;-91
2021/11/13 07:42:35;;;;;;;54.58;25.27;;;;;;;10.00;54.48;101124.84;6078338;23;96549;-90
2021/11/13 07:45:07;;;;;;;47.30;23.38;;;;;;;10.00;54.26;101127.47;6108580;23;98408;-90
2021/11/13 07:47:41;;;;;;;47.35;23.85;;;;;;;10.19;53.81;101142.84;6109216;23;98950;-90
2021/11/13 07:50:12;;;;;;;49.22;24.40;;;;;;;10.13;53.80;101122.72;6112901;23;96687;-90
2021/11/13 07:52:39;;;;;;;49.78;24.67;;;;;;;10.08;54.47;101103.50;6111175;23;96873;-91
2021/11/13 07:55:07;;;;;;;54.72;25.05;;;;;;;10.39;53.34;101114.09;6106785;23;99653;-92
2021/11/13 07:57:36;;;;;;;48.08;23.70;;;;;;;10.49;52.83;101114.72;6095806;23;97731;-91
2021/11/13 08:00:04;;;;;;;54.88;26.20;;;;;;;10.47;53.08;101120.03;6122669;23;95752;-87
2021/11/13 08:02:30;;;;;;;44.83;23.30;;;;;;;10.44;53.74;101116.59;6118161;23;96553;-86
2021/11/13 08:04:57;;;;;;;45.90;22.80;;;;;;;10.14;54.01;101115.69;6121580;23;98958;-91
2021/11/13 08:07:48;;;;;;;45.75;23.48;;;;;;;10.35;53.04;101115.13;6121954;23;99421;-86
2021/11/13 08:10:16;;;;;;;42.92;22.45;;;;;;;10.38;53.87;101125.56;6122270;23;95945;-88
2021/11/13 08:12:45;;;;;;;50.35;25.42;;;;;;;10.33;53.49;101122.22;6122462;23;96557;-88
2021/11/13 08:15:12;;;;;;;44.58;23.10;;;;;;;10.15;54.01;101115.63;6119784;23;99210;-89
2021/11/13 08:17:47;;;;;;;45.53;23.15;;;;;;;10.42;53.74;101110.53;6119939;23;99938;-90
2021/11/13 08:20:16;;;;;;;50.67;23.27;;;;;;;10.43;52.83;101122.81;6119639;23;96732;-90
2021/11/13 08:22:47;;;;;;;44.88;23.75;;;;;;;10.61;53.04;101125.78;6095807;23;96568;-90
2021/11/13 08:25:15;;;;;;;48.08;25.40;;;;;;;10.88;52.63;101128.50;6080740;23;97803;-91
2021/11/13 08:27:45;;;;;;;47.55;23.58;;;;;;;10.96;51.80;101129.16;6088433;23;98617;-92
2021/11/13 08:30:15;;;;;;;48.78;23.80;;;;;;;10.75;52.40;101133.31;6114524;23;96517;-90
2021/11/13 08:32:57;;;;;;;46.78;23.40;;;;;;;10.97;51.62;101128.22;6115606;23;96385;-89
2021/11/13 08:35:26;;;;;;;45.70;23.10;;;;;;;11.00;51.45;101133.41;6117567;23;99193;-89
2021/11/13 08:38:00;;;;;;;45.90;22.30;;;;;;;11.06;51.67;101128.81;6102154;23;98032;-85
2021/11/13 08:40:28;;;;;;;55.03;29.85;;;;;;;11.00;51.89;101133.41;6113532;23;96472;-91
2021/11/13 08:42:58;;;;;;;45.55;22.48;;;;;;;11.08;51.83;101127.00;6116458;23;96869;-89
2021/11/13 08:45:28;;;;;;;44.67;22.52;;;;;;;11.01;51.97;101130.72;6119369;23;99002;-88
2021/11/13 08:48:03;;;;;;;43.95;22.70;;;;;;;11.16;51.37;101134.66;6120918;23;98882;-85
2021/11/13 08:50:36;;;;;;;44.10;22.58;;;;;;;11.33;51.10;101132.34;6122760;23;97518;-89
2021/11/13 08:53:11;;;;;;;42.10;22.60;;;;;;;11.25;50.72;101134.38;6119328;23;96288;-89
2021/11/13 08:55:43;;;;;;;40.80;21.20;;;;;;;11.41;50.50;101148.84;6121199;23;96841;-85
2021/11/13 08:58:15;;;;;;;40.65;21.65;;;;;;;11.36;50.82;101137.53;6095269;23;98430;-85
2021/11/13 09:00:47;;;;;;;44.05;23.20;;;;;;;11.51;50.99;101137.03;6121823;23;96322;-90
2021/11/13 09:03:27;;;;;;;42.45;21.58;;;;;;;11.86;49.96;101142.97;6121584;23;95901;-89
2021/11/13 09:11:39;;;;;;;44.55;21.90;;;;;;;11.72;50.01;101130.16;6109985;23;97387;-87
2021/11/13 09:14:10;;;;;;;41.58;21.48;;;;;;;11.66;49.93;101137.44;6113313;23;96538;-88
2021/11/13 09:16:39;;;;;;;43.85;21.75;;;;;;;11.71;49.97;101146.09;6110052;23;97227;-89
2021/11/13 09:19:11;;;;;;;38.45;20.83;;;;;;;11.59;50.10;101152.66;6084622;23;97696;-89
2021/11/13 09:22:03;;;;;;;38.50;20.58;;;;;;;11.51;50.25;101152.03;6112482;23;96537;-89
2021/11/13 09:24:38;;;;;;;40.53;20.77;;;;;;;11.41;50.67;101158.56;6112810;23;96637;-88
2021/11/13 09:27:11;;;;;;;42.70;21.30;;;;;;;11.71;50.17;101154.03;6089532;23;100304;-89
2021/11/13 09:29:47;;;;;;;37.67;20.90;;;;;;;11.71;50.25;101161.97;6112592;23;100692;-89
2021/11/13 09:32:19;;;;;;;39.20;21.55;;;;;;;11.66;50.38;101156.84;6105279;23;97040;-90
2021/11/13 09:34:49;;;;;;;35.53;19.48;;;;;;;11.75;49.33;101153.06;6102975;23;97405;-88
2021/11/13 09:37:16;;;;;;;35.85;19.33;;;;;;;11.89;49.34;101154.28;6100321;23;97216;-87
2021/11/13 09:39:49;;;;;;;40.08;20.35;;;;;;;11.88;49.45;101146.44;6098588;23;99522;-88
2021/11/13 09:42:16;;;;;;;35.97;19.75;;;;;;;12.09;49.18;101156.25;6115741;23;96759;-87
2021/11/13 09:44:43;;;;;;;37.92;19.60;;;;;;;12.00;49.35;101156.59;6117816;23;96582;-87
2021/11/13 09:47:11;;;;;;;40.28;20.27;;;;;;;11.86;49.10;101150.91;6114847;23;96846;-86
2021/11/13 09:49:40;;;;;;;33.65;18.85;;;;;;;12.12;48.91;101140.25;6116395;23;96870;-91
2021/11/13 09:52:09;;;;;;;35.88;19.55;;;;;;;11.92;48.90;101150.69;6118888;23;96034;-91
2021/11/13 09:54:45;;;;;;;33.92;18.15;;;;;;;12.02;49.10;101152.09;6108604;23;96985;-92
2021/11/13 09:57:13;;;;;;;35.93;18.57;;;;;;;12.14;48.94;101156.94;6101397;23;99562;-92
2021/11/13 09:59:40;;;;;;;33.70;18.33;;;;;;;12.03;49.03;101155.59;6100929;23;100664;-93
2021/11/13 10:02:07;;;;;;;31.67;17.75;;;;;;;11.93;49.26;101144.47;6101948;23;97121;-89
2021/11/13 10:04:40;;;;;;;33.97;18.45;;;;;;;11.93;49.20;101141.84;6103965;23;96738;-89
2021/11/13 10:09:56;;;;;;;32.80;17.95;;;;;;;11.98;49.08;101132.81;6108819;23;98875;-89
2021/11/13 10:12:36;;;;;;;30.95;17.63;;;;;;;12.10;49.27;101142.09;6113136;23;97056;-90
2021/11/13 10:15:25;;;;;;;32.13;17.55;;;;;;;12.27;48.30;101129.09;6114852;23;96562;-91
2021/11/13 10:18:11;;;;;;;34.13;17.40;;;;;;;12.25;48.41;101143.34;6082089;23;98891;-91
2021/11/13 10:20:42;;;;;;;33.13;18.55;;;;;;;12.03;49.30;101137.94;6110762;23;97702;-91
2021/11/13 10:23:19;;;;;;;33.63;18.00;;;;;;;12.37;48.66;101134.94;6085509;23;96828;-90
2021/11/13 10:26:07;;;;;;;33.33;17.98;;;;;;;12.47;48.37;101124.88;6116326;23;96577;-91
2021/11/13 10:28:43;;;;;;;33.15;17.42;;;;;;;12.33;48.54;101126.25;6103898;23;99867;-91
2021/11/13 10:31:13;;;;;;;32.50;16.97;;;;;;;12.26;48.56;101132.69;6104449;23;98897;-92
2021/11/13 10:33:42;;;;;;;30.98;16.92;;;;;;;12.07;49.14;101133.41;6079749;23;97083;-91
2021/11/13 10:38:59;;;;;;;28.85;17.55;;;;;;;11.90;50.07;101108.38;6089538;23;98812;-94
2021/11/13 10:41:31;;;;;;;28.27;16.15;;;;;;;12.16;48.81;101107.44;6078472;23;97977;-90
2021/11/13 10:44:00;;;;;;;33.15;16.23;;;;;;;12.48;48.01;101094.78;6049939;23;97162;-91
2021/11/13 10:46:28;;;;;;;29.95;15.93;;;;;;;12.46;48.08;101100.16;6073424;23;96891;-90
2021/11/13 10:48:58;;;;;;;31.10;16.48;;;;;;;12.68;47.90;101102.84;6075183;23;100769;-92
2021/11/13 10:51:28;;;;;;;32.15;16.83;;;;;;;12.89;47.18;101091.41;6085263;22;99779;-92
2021/11/13 10:54:08;;;;;;;29.50;17.02;;;;;;;12.98;47.19;101083.09;6089171;23;96609;-92
2021/11/13 10:56:48;;;;;;;34.60;17.08;;;;;;;13.26;46.11;101093.47;6088626;23;96598;-92
2021/11/13 10:59:26;;;;;;;30.38;17.50;;;;;;;13.06;46.50;101094.22;6116879;23;97932;-89
2021/11/13 11:01:59;;;;;;;32.08;17.23;;;;;;;12.94;46.58;101089.41;6113491;23;98929;-89
2021/11/13 11:04:31;;;;;;;31.02;17.25;;;;;;;13.28;46.45;101085.44;6118721;23;96563;-89
2021/11/13 11:07:15;;;;;;;28.58;15.95;;;;;;;13.31;45.65;101080.88;6116322;23;96949;-90
2021/11/13 11:10:14;;;;;;;29.25;16.10;;;;;;;13.54;45.80;101078.13;6122739;23;99603;-86
2021/11/13 11:12:50;;;;;;;30.95;16.95;;;;;;;13.88;45.35;101071.34;6121202;23;97065;-88
2021/11/13 11:15:21;;;;;;;31.40;16.73;;;;;;;13.92;44.78;101071.13;6122223;23;95948;-90
2021/11/13 11:17:59;;;;;;;26.50;16.65;;;;;;;13.73;45.06;101075.53;6094189;23;96593;-90
2021/11/13 11:20:28;;;;;;;29.33;17.63;;;;;;;13.78;44.86;101068.25;6095183;23;99641;-91
2021/11/13 11:25:37;;;;;;;27.20;15.55;;;;;;;13.67;45.13;101067.84;6107305;23;96618;-89
2021/11/13 11:28:14;;;;;;;27.55;16.40;;;;;;;13.94;44.69;101071.94;6085310;23;96772;-90
2021/11/13 11:30:49;;;;;;;32.40;17.00;;;;;;;14.07;45.01;101076.72;6061231;23;98050;-89
2021/11/13 11:36:00;;;;;;;30.58;16.55;;;;;;;14.06;45.05;101089.13;6106205;23;96563;-89
2021/11/13 11:38:33;;;;;;;27.48;15.73;;;;;;;13.89;45.11;101086.38;6083250;23;96914;-89
2021/11/13 11:41:03;;;;;;;25.50;15.60;;;;;;;14.34;44.08;101088.75;6085333;23;96937;-88
2021/11/13 11:43:40;;;;;;;25.15;15.90;;;;;;;14.17;43.99;101094.00;6110872;23;96822;-91
2021/11/13 11:46:07;;;;;;;28.38;15.80;;;;;;;13.96;44.54;101094.00;6109325;23;97123;-87
2021/11/13 11:48:39;;;;;;;28.17;15.00;;;;;;;14.14;43.92;101087.00;6118259;23;96745;-89
2021/11/13 11:51:09;;;;;;;25.40;15.13;;;;;;;14.00;44.95;101085.88;6120967;23;99492;-90
2021/11/13 11:53:37;;;;;;;26.70;15.65;;;;;;;14.16;44.44;101085.16;6120939;23;98190;-86
2021/11/13 11:56:06;;;;;;;28.77;15.75;;;;;;;14.27;44.56;101089.97;6118894;23;96310;-85
2021/11/13 11:58:35;;;;;;;25.95;14.70;;;;;;;14.02;44.60;101090.22;6120662;23;96410;-86
2021/11/13 12:03:35;;;;;;;26.65;15.10;;;;;;;13.70;45.80;101086.31;6110031;23;124729;-87
2021/11/13 12:06:03;;;;;;;27.33;15.85;;;;;;;13.82;45.63;101091.09;6121834;23;95869;-83